X  Chiuso Dati meteorologici dell'aviazione (METAR)     EHGG Eelde Airport
Temperatura
19°C Temperatura
15°C Punto di rugiada
78% Umidità



Vento
19 KM/O
12 MPH
5 M/S
10 KTS



250°
OSO
Condizioni attuali

Parzialmente nuvoloso Parzialmente nuvoloso
Pressione 1017.95 (hPa) - 30.06 (inHg)
Visibilità 6 (miglio) - 9.7 (km)
Aeroporto
Codice-Aeroporto EHGG

Posizione: Eelde Airport
Distanza: 90 (km)

Metar:
EHGG 170955Z AUTO 25010KT 220V290 9999 FEW013/// SCT016/// BKN025/// 19/15 Q1018 NOSIG

Ore: 17-07-2024 11:55 CEST